Terminal Aerodrome Forecast
Issued by NWS

Home | Current Version | Previous Version | Text Only | Print | Product List | Glossary On
Versions: 1 2 3 4 5 6 7 8 9 10 11 12 13 14 15 16 17 18 19 20 21 22 23 24 25 26 27
317
FTUS43 KGRB 180508 AAA
TAFAUW
TAF AMD
KAUW 180508Z 1805/1824 00000KT 1SM BR OVC007
      TEMPO 1805/1809 2SM BR OVC003
     FM181400 23004KT 1SM BR OVC003
     FM181500 23005KT P6SM BKN003
     FM181900 22007KT P6SM BKN008
     FM182100 22007KT P6SM BKN020=

USA.gov is the U.S. government's official web portal to all federal, state and local government web resources and services.